createdAt,value
2018-12-12T00:00:09.157Z,98.93
2018-12-12T00:02:40.483Z,99.70
2018-12-12T00:05:11.727Z,100.57
2018-12-12T00:07:41.076Z,100.73
2018-12-12T00:10:14.623Z,95.50
2018-12-12T00:12:45.928Z,98.53
2018-12-12T00:15:16.677Z,104.47
2018-12-12T00:17:46.735Z,101.30
2018-12-12T00:20:16.498Z,109.30
2018-12-12T00:22:45.799Z,99.53
2018-12-12T00:25:15.359Z,104.00
2018-12-12T00:27:45.438Z,94.93
2018-12-12T00:30:14.775Z,99.70
2018-12-12T00:32:44.141Z,97.47
2018-12-12T00:35:13.656Z,90.30
2018-12-12T00:37:43.019Z,94.40
2018-12-12T00:40:13.374Z,90.70
2018-12-12T00:42:42.875Z,94.70
2018-12-12T00:45:12.218Z,86.80
2018-12-12T00:47:41.675Z,99.33
2018-12-12T00:50:11.070Z,86.97
2018-12-12T00:52:40.364Z,101.13
2018-12-12T00:55:09.875Z,75.70
2018-12-12T00:57:39.278Z,83.83
2018-12-12T01:00:08.775Z,89.67
2018-12-12T01:02:38.142Z,90.63
2018-12-12T01:05:07.532Z,83.53
2018-12-12T01:07:36.903Z,84.23
2018-12-12T01:10:06.241Z,83.00
2018-12-12T01:12:35.674Z,87.77
2018-12-12T01:15:05.295Z,85.80
2018-12-12T01:17:35.095Z,88.90
2018-12-12T01:20:07.570Z,88.30
2018-12-12T01:22:37.577Z,77.10
2018-12-12T01:25:07.214Z,79.60
2018-12-12T01:27:36.615Z,74.00
2018-12-12T01:30:06.087Z,80.00
2018-12-12T01:32:36.474Z,80.77
2018-12-12T01:35:06.462Z,76.50
2018-12-12T01:37:35.836Z,70.70
2018-12-12T01:40:06.155Z,90.43
2018-12-12T01:42:35.460Z,78.50
2018-12-12T01:45:05.114Z,82.27
2018-12-12T01:47:34.399Z,79.43
2018-12-12T01:50:04.534Z,71.87
2018-12-12T01:52:33.975Z,78.20
2018-12-12T01:55:03.390Z,86.17
2018-12-12T01:57:32.812Z,78.13
2018-12-12T02:00:02.119Z,75.13
2018-12-12T02:02:33.415Z,78.10
2018-12-12T02:05:02.821Z,78.33
2018-12-12T02:07:32.167Z,82.50
2018-12-12T02:10:01.637Z,76.67
2018-12-12T02:12:32.164Z,79.33
2018-12-12T02:15:03.280Z,75.60
2018-12-12T02:17:32.654Z,73.23
2018-12-12T02:20:02.036Z,86.05
2018-12-12T02:22:31.695Z,81.40
2018-12-12T02:25:01.075Z,82.00
2018-12-12T02:27:30.495Z,71.77
2018-12-12T02:29:59.914Z,85.93
2018-12-12T02:32:29.684Z,73.30
2018-12-12T02:34:59.056Z,74.20
2018-12-12T02:37:28.436Z,78.77
2018-12-12T02:39:57.917Z,76.33
2018-12-12T02:42:27.247Z,75.67
2018-12-12T02:44:56.535Z,74.90
2018-12-12T02:47:25.968Z,81.77
2018-12-12T02:49:55.415Z,82.07
2018-12-12T02:52:24.839Z,80.07
2018-12-12T02:54:54.255Z,74.27
2018-12-12T02:57:23.647Z,72.20
2018-12-12T02:59:52.984Z,80.37
2018-12-12T03:02:22.355Z,74.47
2018-12-12T03:04:51.755Z,74.43
2018-12-12T03:07:21.116Z,78.07
2018-12-12T03:09:50.554Z,71.27
2018-12-12T03:12:20.116Z,76.23
2018-12-12T03:14:53.094Z,71.60
2018-12-12T03:17:22.443Z,68.03
2018-12-12T03:19:51.839Z,82.87
2018-12-12T03:22:21.315Z,70.67
2018-12-12T03:24:50.696Z,75.10
2018-12-12T03:27:20.304Z,75.70
2018-12-12T03:29:49.619Z,70.03
2018-12-12T03:32:18.956Z,68.77
2018-12-12T03:34:48.383Z,75.27
2018-12-12T03:37:18.024Z,80.70
2018-12-12T03:39:47.434Z,69.50
2018-12-12T03:42:16.820Z,67.23
2018-12-12T03:44:46.234Z,60.83
2018-12-12T03:47:15.556Z,64.40
2018-12-12T03:49:44.902Z,75.40
2018-12-12T03:52:14.404Z,65.83
2018-12-12T03:54:43.755Z,73.33
2018-12-12T03:57:13.139Z,60.63
2018-12-12T03:59:42.535Z,72.93
2018-12-12T04:02:11.903Z,67.87
2018-12-12T04:04:41.290Z,75.37
2018-12-12T04:07:10.655Z,66.87
2018-12-12T04:09:40.117Z,72.00
2018-12-12T04:12:09.443Z,79.73
2018-12-12T04:14:38.836Z,74.43
2018-12-12T04:17:08.121Z,84.50
2018-12-12T04:19:37.609Z,75.40
2018-12-12T04:22:08.887Z,71.37
2018-12-12T04:24:38.378Z,75.53
2018-12-12T04:27:07.793Z,76.13
2018-12-12T04:29:40.127Z,80.83
2018-12-12T04:32:10.656Z,79.73
2018-12-12T04:34:40.115Z,68.67
2018-12-12T04:37:09.500Z,69.90
2018-12-12T04:39:39.114Z,71.47
2018-12-12T04:42:08.458Z,76.47
2018-12-12T04:44:38.781Z,76.87
2018-12-12T04:47:08.139Z,74.53
2018-12-12T04:49:37.573Z,72.77
2018-12-12T04:52:06.999Z,74.53
2018-12-12T04:54:36.273Z,68.20
2018-12-12T04:57:05.575Z,67.53
2018-12-12T04:59:35.209Z,69.07
2018-12-12T05:02:04.579Z,71.97
2018-12-12T05:04:33.851Z,71.60
2018-12-12T05:07:04.403Z,66.67
2018-12-12T05:09:34.480Z,76.37
2018-12-12T05:12:03.836Z,67.77
2018-12-12T05:14:33.594Z,75.13
2018-12-12T05:17:02.959Z,67.47
2018-12-12T05:19:33.399Z,70.80
2018-12-12T05:22:02.734Z,84.93
2018-12-12T05:24:32.155Z,68.80
2018-12-12T05:27:01.548Z,79.70
2018-12-12T05:29:30.873Z,83.00
2018-12-12T05:32:00.250Z,81.17
2018-12-12T05:34:29.614Z,72.30
2018-12-12T05:36:59.034Z,68.03
2018-12-12T05:39:28.503Z,67.53
2018-12-12T05:41:57.935Z,67.10
2018-12-12T05:44:27.275Z,68.23
2018-12-12T05:46:56.793Z,64.97
2018-12-12T05:49:26.155Z,67.50
2018-12-12T05:51:55.481Z,66.70
2018-12-12T05:54:24.963Z,64.13
2018-12-12T05:56:54.319Z,67.10
2018-12-12T05:59:23.616Z,75.27
2018-12-12T06:01:53.057Z,74.23
2018-12-12T06:04:22.475Z,67.10
2018-12-12T06:06:51.894Z,82.40
2018-12-12T06:09:22.397Z,70.07
2018-12-12T06:11:52.036Z,77.50
2018-12-12T06:14:21.523Z,64.10
2018-12-12T06:16:50.974Z,66.03
2018-12-12T06:19:20.467Z,67.13
2018-12-12T06:21:49.735Z,65.77
2018-12-12T06:24:19.088Z,63.97
2018-12-12T06:26:48.414Z,81.13
2018-12-12T06:29:17.776Z,66.80
2018-12-12T06:31:47.179Z,67.27
2018-12-12T06:34:16.559Z,71.77
2018-12-12T06:36:45.943Z,75.13
2018-12-12T06:39:15.275Z,67.57
2018-12-12T06:41:44.675Z,60.67
2018-12-12T06:44:13.997Z,63.73
2018-12-12T06:46:43.377Z,65.17
2018-12-12T06:49:12.775Z,59.83
2018-12-12T06:51:42.185Z,65.77
2018-12-12T06:54:11.594Z,71.80
2018-12-12T06:56:40.969Z,58.67
2018-12-12T06:59:10.254Z,59.80
2018-12-12T07:01:39.789Z,62.83
2018-12-12T07:04:09.049Z,62.40
2018-12-12T07:06:38.394Z,66.67
2018-12-12T07:09:13.134Z,63.33
2018-12-12T07:11:42.514Z,60.73
2018-12-12T07:14:11.864Z,65.20
2018-12-12T07:16:41.215Z,70.60
2018-12-12T07:19:10.619Z,70.17
2018-12-12T07:21:39.967Z,67.57
2018-12-12T07:24:09.413Z,67.93
2018-12-12T07:26:38.794Z,62.97
2018-12-12T07:29:08.136Z,57.57
2018-12-12T07:31:37.617Z,68.90
2018-12-12T07:34:09.824Z,60.37
2018-12-12T07:36:39.709Z,68.57
2018-12-12T07:39:17.896Z,58.83
2018-12-12T07:41:46.277Z,60.67
2018-12-12T07:44:17.623Z,64.93
2018-12-12T07:46:49.215Z,61.67
2018-12-12T07:49:20.678Z,62.57
2018-12-12T07:51:51.849Z,57.77
2018-12-12T07:54:21.240Z,61.77
2018-12-12T07:56:50.605Z,60.37
2018-12-12T07:59:20.076Z,60.70
2018-12-12T08:01:49.467Z,65.03
2018-12-12T08:04:18.875Z,63.70
2018-12-12T08:06:48.247Z,55.80
2018-12-12T08:09:17.580Z,61.40
2018-12-12T08:11:46.966Z,53.27
2018-12-12T08:14:16.344Z,55.43
2018-12-12T08:16:45.737Z,69.53
2018-12-12T08:19:15.444Z,54.13
2018-12-12T08:21:47.075Z,52.10
2018-12-12T08:24:17.658Z,58.60
2018-12-12T08:26:48.708Z,60.17
2018-12-12T08:29:18.204Z,57.07
2018-12-12T08:31:47.684Z,56.33
2018-12-12T08:34:17.215Z,53.83
2018-12-12T08:36:46.764Z,55.87
2018-12-12T08:39:16.175Z,60.53
2018-12-12T08:41:45.564Z,57.23
2018-12-12T08:44:14.966Z,62.23
2018-12-12T08:46:44.314Z,69.83
2018-12-12T08:49:13.813Z,58.30
2018-12-12T08:51:43.516Z,69.40
2018-12-12T08:54:12.948Z,61.48
2018-12-12T08:56:42.430Z,70.87
2018-12-12T08:59:11.820Z,64.33
2018-12-12T09:01:41.157Z,59.37
2018-12-12T09:04:10.598Z,72.50
2018-12-12T09:06:40.093Z,68.10
2018-12-12T09:09:09.529Z,63.83
2018-12-12T09:11:40.883Z,55.30
2018-12-12T09:14:10.500Z,52.30
2018-12-12T09:16:39.975Z,56.70
2018-12-12T09:19:11.274Z,46.77
2018-12-12T09:21:40.567Z,49.87
2018-12-12T09:24:10.027Z,46.60
2018-12-12T09:26:39.599Z,51.73
2018-12-12T09:29:08.994Z,48.97
2018-12-12T09:31:40.415Z,46.27
2018-12-12T09:34:11.634Z,45.37
2018-12-12T09:36:41.316Z,54.47
2018-12-12T09:39:10.577Z,48.23
2018-12-12T09:41:40.123Z,56.53
2018-12-12T09:44:09.955Z,56.97
2018-12-12T09:46:39.341Z,53.87
2018-12-12T09:49:08.670Z,51.63
2018-12-12T09:51:39.989Z,52.53
2018-12-12T09:54:11.283Z,52.63
2018-12-12T09:56:40.761Z,53.00
2018-12-12T09:59:11.365Z,62.70
2018-12-12T10:01:40.874Z,58.20
2018-12-12T10:04:10.204Z,54.73
2018-12-12T10:06:39.583Z,52.73
2018-12-12T10:09:09.024Z,57.80
2018-12-12T10:11:41.589Z,56.73
2018-12-12T10:14:10.945Z,61.23
2018-12-12T10:16:40.268Z,55.95
2018-12-12T10:19:09.744Z,51.20
2018-12-12T10:21:39.164Z,61.50
2018-12-12T10:24:08.584Z,51.15
2018-12-12T10:26:37.951Z,55.48
2018-12-12T10:29:07.338Z,56.28
2018-12-12T10:31:36.676Z,49.85
2018-12-12T10:34:06.137Z,47.35
2018-12-12T10:36:45.569Z,50.08
2018-12-12T10:46:22.157Z,45.35
2018-12-12T10:48:52.652Z,45.88
2018-12-12T10:51:22.051Z,44.60
2018-12-12T10:53:51.737Z,44.95
2018-12-12T10:56:21.641Z,50.38
2018-12-12T10:58:53.935Z,46.00
2018-12-12T11:01:27.561Z,43.02
2018-12-12T11:03:57.849Z,44.37
2018-12-12T11:06:28.337Z,46.85
2018-12-12T11:08:57.811Z,38.92
2018-12-12T11:11:27.260Z,39.83
2018-12-12T11:13:58.303Z,34.73
2018-12-12T11:16:27.920Z,36.98
2018-12-12T11:18:58.001Z,41.73
2018-12-12T11:21:27.539Z,47.58
2018-12-12T11:23:57.170Z,45.43
2018-12-12T11:26:26.569Z,46.13
2018-12-12T11:28:56.300Z,47.78
2018-12-12T11:31:25.582Z,46.23
2018-12-12T11:33:54.901Z,44.20
2018-12-12T11:36:24.370Z,43.47
2018-12-12T11:38:53.895Z,38.95
2018-12-12T11:41:23.413Z,41.98
2018-12-12T11:43:53.672Z,45.40
2018-12-12T11:46:26.713Z,47.13
2018-12-12T11:48:56.638Z,51.47
2018-12-12T11:51:26.629Z,47.88
2018-12-12T11:54:03.045Z,40.33
2018-12-12T12:02:10.229Z,37.33
2018-12-12T12:07:34.308Z,36.13
2018-12-12T12:10:12.412Z,33.33
2018-12-12T12:12:57.711Z,36.47
